RPC1898 RPLL-RPLL
Flight info
| Callsign | RPC1898 |
|---|---|
| Flight time | 0h 33m |
| Altitude | 500 |
| Route | RPLL RPLL |
| Aircraft | B412/L-VGD/A |
Departure
| Time | 2026-05-04 15:02 |
|---|---|
| Airport | Ninoy Aquino International Airport (RPLL) |
Arrival
| Time | 2026-05-04 15:35 |
|---|---|
| Airport | Ninoy Aquino International Airport (RPLL) |
| Time | Latitude | Longitude | Altitude | Speed | Heading |
|---|---|---|---|---|---|
| 2026-05-04 14:48 | 14.51856 | 121.00497 | 79 ft | 0 kts | 155° |
| 2026-05-04 14:57 | 14.51829 | 121.00493 | 88 ft | 9 kts | 256° |
| 2026-05-04 14:57 | 14.51702 | 121.00316 | 282 ft | 54 kts | 234° |
| 2026-05-04 14:58 | 14.51552 | 120.99826 | 430 ft | 86 kts | 280° |
| 2026-05-04 14:58 | 14.51797 | 120.99201 | 389 ft | 99 kts | 297° |
| 2026-05-04 14:58 | 14.52111 | 120.98550 | 383 ft | 98 kts | 301° |
| 2026-05-04 14:58 | 14.52426 | 120.97945 | 499 ft | 94 kts | 305° |
| 2026-05-04 14:59 | 14.52775 | 120.97315 | 316 ft | 100 kts | 304° |
| 2026-05-04 14:59 | 14.53130 | 120.96729 | 200 ft | 95 kts | 302° |
| 2026-05-04 14:59 | 14.53917 | 120.96706 | 112 ft | 64 kts | 46° |
| 2026-05-04 15:00 | 14.54234 | 120.96997 | 285 ft | 60 kts | 45° |
| 2026-05-04 15:00 | 14.54654 | 120.97260 | 231 ft | 72 kts | 25° |
| 2026-05-04 15:00 | 14.55102 | 120.97480 | 245 ft | 70 kts | 32° |
| 2026-05-04 15:01 | 14.55763 | 120.98166 | 224 ft | 67 kts | 72° |
| 2026-05-04 15:01 | 14.55849 | 120.98656 | 370 ft | 64 kts | 97° |
| 2026-05-04 15:01 | 14.56014 | 120.99129 | 536 ft | 83 kts | 67° |
| 2026-05-04 15:01 | 14.56321 | 120.99701 | 666 ft | 93 kts | 65° |
| 2026-05-04 15:02 | 14.56628 | 121.00307 | 806 ft | 98 kts | 73° |
| 2026-05-04 15:02 | 14.56899 | 121.00869 | 1248 ft | 86 kts | 68° |
| 2026-05-04 15:02 | 14.57189 | 121.01427 | 1430 ft | 96 kts | 66° |
| 2026-05-04 15:02 | 14.57543 | 121.02078 | 1371 ft | 108 kts | 60° |
| 2026-05-04 15:03 | 14.57924 | 121.02743 | 1377 ft | 109 kts | 64° |
| 2026-05-04 15:03 | 14.58253 | 121.03420 | 1451 ft | 101 kts | 66° |
| 2026-05-04 15:03 | 14.58588 | 121.04082 | 1443 ft | 107 kts | 64° |
| 2026-05-04 15:03 | 14.58902 | 121.04809 | 1362 ft | 114 kts | 73° |
| 2026-05-04 15:04 | 14.58988 | 121.05635 | 1318 ft | 114 kts | 97° |
| 2026-05-04 15:04 | 14.58615 | 121.06323 | 1346 ft | 115 kts | 137° |
| 2026-05-04 15:04 | 14.57854 | 121.06738 | 857 ft | 133 kts | 148° |
| 2026-05-04 15:04 | 14.57012 | 121.07104 | 499 ft | 122 kts | 144° |
| 2026-05-04 15:05 | 14.56410 | 121.07577 | 393 ft | 100 kts | 122° |
| 2026-05-04 15:05 | 14.56011 | 121.08109 | 393 ft | 87 kts | 120° |
| 2026-05-04 15:05 | 14.55697 | 121.08627 | 373 ft | 83 kts | 115° |
| 2026-05-04 15:05 | 14.55442 | 121.09176 | 295 ft | 89 kts | 105° |
| 2026-05-04 15:06 | 14.55292 | 121.09792 | 288 ft | 91 kts | 101° |
| 2026-05-04 15:06 | 14.55159 | 121.10440 | 325 ft | 92 kts | 103° |
| 2026-05-04 15:06 | 14.55015 | 121.11098 | 399 ft | 96 kts | 103° |
| 2026-05-04 15:07 | 14.55372 | 121.11861 | 475 ft | 81 kts | 320° |
| 2026-05-04 15:07 | 14.55765 | 121.11465 | 417 ft | 74 kts | 303° |
| 2026-05-04 15:07 | 14.55576 | 121.11162 | 385 ft | 55 kts | 161° |
| 2026-05-04 15:07 | 14.55201 | 121.11422 | 227 ft | 76 kts | 131° |
| 2026-05-04 15:08 | 14.54823 | 121.11800 | 314 ft | 84 kts | 140° |
| 2026-05-04 15:08 | 14.54598 | 121.11975 | 335 ft | 91 kts | 142° |
| 2026-05-04 15:08 | 14.54041 | 121.12397 | 328 ft | 102 kts | 141° |
| 2026-05-04 15:08 | 14.53466 | 121.12861 | 320 ft | 107 kts | 139° |
| 2026-05-04 15:09 | 14.52911 | 121.13338 | 414 ft | 100 kts | 141° |
| 2026-05-04 15:09 | 14.52302 | 121.13734 | 430 ft | 105 kts | 148° |
| 2026-05-04 15:09 | 14.51640 | 121.14089 | 444 ft | 106 kts | 149° |
| 2026-05-04 15:10 | 14.50302 | 121.14255 | 499 ft | 118 kts | 225° |
| 2026-05-04 15:10 | 14.50037 | 121.13500 | 488 ft | 113 kts | 278° |
| 2026-05-04 15:10 | 14.51165 | 121.13111 | 321 ft | 92 kts | 9° |
| 2026-05-04 15:11 | 14.51544 | 121.13099 | 287 ft | 93 kts | 352° |
| 2026-05-04 15:11 | 14.52143 | 121.12838 | 240 ft | 96 kts | 321° |
| 2026-05-04 15:11 | 14.52445 | 121.12234 | 265 ft | 98 kts | 282° |
| 2026-05-04 15:11 | 14.52405 | 121.11523 | 337 ft | 104 kts | 263° |
| 2026-05-04 15:12 | 14.52174 | 121.10777 | 423 ft | 111 kts | 249° |
| 2026-05-04 15:12 | 14.51806 | 121.10044 | 445 ft | 122 kts | 243° |
| 2026-05-04 15:12 | 14.51391 | 121.09240 | 379 ft | 129 kts | 243° |
| 2026-05-04 15:12 | 14.50974 | 121.08437 | 419 ft | 125 kts | 244° |
| 2026-05-04 15:13 | 14.50512 | 121.07663 | 410 ft | 124 kts | 228° |
| 2026-05-04 15:13 | 14.49820 | 121.07149 | 465 ft | 121 kts | 207° |
| 2026-05-04 15:13 | 14.49053 | 121.06821 | 545 ft | 117 kts | 201° |
| 2026-05-04 15:13 | 14.48236 | 121.06473 | 367 ft | 136 kts | 200° |
| 2026-05-04 15:14 | 14.47364 | 121.06126 | 347 ft | 128 kts | 201° |
| 2026-05-04 15:14 | 14.46532 | 121.05817 | 378 ft | 124 kts | 194° |
| 2026-05-04 15:14 | 14.45667 | 121.05667 | 288 ft | 131 kts | 187° |
| 2026-05-04 15:14 | 14.44763 | 121.05527 | 260 ft | 128 kts | 188° |
| 2026-05-04 15:15 | 14.43885 | 121.05411 | 272 ft | 122 kts | 185° |
| 2026-05-04 15:15 | 14.43031 | 121.05348 | 269 ft | 124 kts | 182° |
| 2026-05-04 15:15 | 14.42168 | 121.05309 | 287 ft | 122 kts | 180° |
| 2026-05-04 15:16 | 14.40576 | 121.05031 | 443 ft | 116 kts | 224° |
| 2026-05-04 15:16 | 14.40552 | 121.04248 | 406 ft | 119 kts | 312° |
| 2026-05-04 15:16 | 14.42076 | 121.03997 | 457 ft | 116 kts | 340° |
| 2026-05-04 15:17 | 14.42726 | 121.03481 | 498 ft | 118 kts | 322° |
| 2026-05-04 15:17 | 14.43358 | 121.02120 | 560 ft | 105 kts | 213° |
| 2026-05-04 15:17 | 14.42884 | 121.02300 | 546 ft | 82 kts | 92° |
| 2026-05-04 15:18 | 14.43268 | 121.02557 | 513 ft | 79 kts | 339° |
| 2026-05-04 15:18 | 14.43285 | 121.02078 | 448 ft | 79 kts | 204° |
| 2026-05-04 15:18 | 14.42975 | 121.02271 | 428 ft | 59 kts | 73° |
| 2026-05-04 15:19 | 14.43213 | 121.01931 | 431 ft | 65 kts | 200° |
| 2026-05-04 15:19 | 14.42887 | 121.02135 | 425 ft | 61 kts | 87° |
| 2026-05-04 15:19 | 14.42782 | 121.01829 | 430 ft | 73 kts | 190° |
| 2026-05-04 15:20 | 14.42263 | 121.01863 | 451 ft | 79 kts | 161° |
| 2026-05-04 15:20 | 14.41706 | 121.02126 | 380 ft | 95 kts | 142° |
| 2026-05-04 15:20 | 14.41157 | 121.02508 | 382 ft | 94 kts | 151° |
| 2026-05-04 15:20 | 14.40513 | 121.02676 | 379 ft | 97 kts | 169° |
| 2026-05-04 15:21 | 14.39827 | 121.02685 | 390 ft | 97 kts | 182° |
| 2026-05-04 15:21 | 14.39155 | 121.02593 | 410 ft | 95 kts | 185° |
| 2026-05-04 15:21 | 14.37825 | 121.02494 | 439 ft | 96 kts | 177° |
| 2026-05-04 15:22 | 14.37144 | 121.02497 | 424 ft | 99 kts | 174° |
| 2026-05-04 15:22 | 14.36458 | 121.02551 | 413 ft | 100 kts | 169° |
| 2026-05-04 15:22 | 14.35113 | 121.02694 | 471 ft | 93 kts | 172° |
| 2026-05-04 15:23 | 14.34536 | 121.02582 | 575 ft | 83 kts | 230° |
| 2026-05-04 15:23 | 14.34745 | 121.02115 | 454 ft | 94 kts | 353° |
| 2026-05-04 15:23 | 14.35303 | 121.02316 | 470 ft | 88 kts | 28° |
| 2026-05-04 15:23 | 14.35915 | 121.02567 | 403 ft | 96 kts | 17° |
| 2026-05-04 15:24 | 14.37222 | 121.02927 | 376 ft | 96 kts | 17° |
| 2026-05-04 15:24 | 14.38468 | 121.03431 | 379 ft | 90 kts | 22° |
| 2026-05-04 15:25 | 14.39066 | 121.03666 | 378 ft | 91 kts | 26° |
| 2026-05-04 15:25 | 14.39661 | 121.03979 | 347 ft | 94 kts | 30° |
| 2026-05-04 15:25 | 14.40218 | 121.04331 | 344 ft | 94 kts | 34° |
| 2026-05-04 15:26 | 14.41290 | 121.04284 | 388 ft | 99 kts | 317° |
| 2026-05-04 15:26 | 14.41777 | 121.03741 | 340 ft | 103 kts | 313° |
| 2026-05-04 15:26 | 14.42775 | 121.02554 | 379 ft | 111 kts | 316° |
| 2026-05-04 15:27 | 14.43302 | 121.01980 | 437 ft | 107 kts | 316° |
| 2026-05-04 15:27 | 14.44306 | 121.00783 | 517 ft | 111 kts | 312° |
| 2026-05-04 15:28 | 14.45433 | 120.99757 | 477 ft | 120 kts | 332° |
| 2026-05-04 15:28 | 14.46187 | 120.99355 | 400 ft | 118 kts | 341° |
| 2026-05-04 15:28 | 14.47715 | 120.98869 | 466 ft | 111 kts | 347° |
| 2026-05-04 15:29 | 14.48477 | 120.98636 | 440 ft | 116 kts | 347° |
| 2026-05-04 15:30 | 14.51581 | 120.97856 | 446 ft | 109 kts | 328° |
| 2026-05-04 15:30 | 14.52211 | 120.95503 | 358 ft | 121 kts | 268° |
| 2026-05-04 15:31 | 14.51720 | 120.93863 | 408 ft | 119 kts | 248° |
| 2026-05-04 15:31 | 14.51391 | 120.93053 | 429 ft | 125 kts | 250° |
| 2026-05-04 15:32 | 14.49958 | 120.91932 | 363 ft | 94 kts | 98° |
| 2026-05-04 15:32 | 14.50421 | 120.93279 | 407 ft | 105 kts | 74° |
| 2026-05-04 15:33 | 14.50924 | 120.94824 | 312 ft | 125 kts | 71° |
| 2026-05-04 15:34 | 14.51841 | 120.97182 | 403 ft | 113 kts | 76° |
| 2026-05-04 15:34 | 14.52157 | 120.97929 | 456 ft | 109 kts | 62° |
| 2026-05-04 15:34 | 14.52715 | 120.99383 | 307 ft | 106 kts | 81° |
| 2026-05-04 15:35 | 14.52389 | 121.00218 | 119 ft | 44 kts | 161° |
| 2026-05-04 15:35 | 14.52221 | 121.00258 | 79 ft | 0 kts | 182° |